createdAt,value
2022-08-05T00:00:28.868Z,1.90
2022-08-05T00:02:59.726Z,1.80
2022-08-05T00:06:04.822Z,1.40
2022-08-05T00:08:35.010Z,1.75
2022-08-05T00:11:27.992Z,2.13
2022-08-05T00:16:35.653Z,1.55
2022-08-05T00:19:07.618Z,1.90
2022-08-05T00:21:37.889Z,1.90
2022-08-05T00:24:10.367Z,1.70
2022-08-05T00:26:51.827Z,1.70
2022-08-05T00:29:25.498Z,1.70
2022-08-05T00:32:13.169Z,1.70
2022-08-05T00:35:03.918Z,1.80
2022-08-05T00:37:53.117Z,2.30
2022-08-05T00:40:27.889Z,1.90
2022-08-05T00:43:07.434Z,1.77
2022-08-05T00:45:43.654Z,3.33
2022-08-05T00:48:15.238Z,1.80
2022-08-05T00:50:47.174Z,1.85
2022-08-05T00:54:01.296Z,2.03
2022-08-05T00:56:10.747Z,1.92
2022-08-05T00:58:44.992Z,2.00
2022-08-05T01:01:24.990Z,2.05
2022-08-05T01:04:14.121Z,2.05
2022-08-05T01:06:48.610Z,1.88
2022-08-05T01:09:19.910Z,2.00
2022-08-05T01:11:53.870Z,2.13
2022-08-05T01:14:34.448Z,1.83
2022-08-05T01:17:09.854Z,2.00
2022-08-05T01:20:00.701Z,1.90
2022-08-05T01:22:46.966Z,2.00
2022-08-05T01:25:40.457Z,1.80
2022-08-05T01:28:34.310Z,1.90
2022-08-05T01:31:11.407Z,1.73
2022-08-05T01:33:49.234Z,2.35
2022-08-05T01:36:28.710Z,2.05
2022-08-05T01:39:00.301Z,2.22
2022-08-05T01:41:37.568Z,1.80
2022-08-05T01:44:11.525Z,1.90
2022-08-05T01:49:23.908Z,1.98
2022-08-05T01:51:59.000Z,1.88
2022-08-05T01:54:46.260Z,1.90
2022-08-05T01:58:18.758Z,1.95
2022-08-05T02:00:15.194Z,2.20
2022-08-05T02:02:54.703Z,2.05
2022-08-05T02:05:28.552Z,2.08
2022-08-05T02:08:01.714Z,2.10
2022-08-05T02:10:37.642Z,2.28
2022-08-05T02:13:16.486Z,1.77
2022-08-05T02:15:54.727Z,1.98
2022-08-05T02:18:34.327Z,2.08
2022-08-05T02:21:14.717Z,1.80
2022-08-05T02:23:49.199Z,2.65
2022-08-05T02:26:26.534Z,2.30
2022-08-05T02:28:59.054Z,2.78
2022-08-05T02:31:35.211Z,2.10
2022-08-05T02:34:09.863Z,1.83
2022-08-05T02:36:44.679Z,2.03
2022-08-05T02:39:18.638Z,2.17
2022-08-05T02:42:00.993Z,2.10
2022-08-05T02:44:33.999Z,1.98
2022-08-05T02:47:09.233Z,2.30
2022-08-05T02:49:44.672Z,1.98
2022-08-05T02:52:29.609Z,2.00
2022-08-05T02:55:05.558Z,2.17
2022-08-05T02:58:10.664Z,2.25
2022-08-05T03:00:30.032Z,1.90
2022-08-05T03:03:10.188Z,2.10
2022-08-05T03:06:55.891Z,2.28
2022-08-05T03:08:33.881Z,2.45
2022-08-05T03:11:55.351Z,2.40
2022-08-05T03:14:03.084Z,2.15
2022-08-05T03:16:34.016Z,2.15
2022-08-05T03:19:12.745Z,2.22
2022-08-05T03:21:48.731Z,2.22
2022-08-05T03:24:29.348Z,2.20
2022-08-05T03:27:03.460Z,2.17
2022-08-05T03:29:45.821Z,2.20
2022-08-05T03:32:31.072Z,1.75
2022-08-05T03:35:05.624Z,1.88
2022-08-05T03:37:41.650Z,2.60
2022-08-05T03:40:24.311Z,2.40
2022-08-05T03:43:58.566Z,2.00
2022-08-05T03:45:57.513Z,2.40
2022-08-05T03:48:30.405Z,1.98
2022-08-05T03:52:38.612Z,1.85
2022-08-05T03:55:52.891Z,2.30
2022-08-05T03:57:02.706Z,1.95
2022-08-05T03:59:55.610Z,2.05
2022-08-05T04:02:38.957Z,2.13
2022-08-05T04:05:16.991Z,2.50
2022-08-05T04:07:58.104Z,2.55
2022-08-05T04:10:37.699Z,2.30
2022-08-05T04:13:10.148Z,2.33
2022-08-05T04:15:52.850Z,2.20
2022-08-05T04:18:34.241Z,2.22
2022-08-05T04:21:05.557Z,2.38
2022-08-05T04:24:04.836Z,2.20
2022-08-05T04:26:32.414Z,2.20
2022-08-05T04:29:07.217Z,2.40
2022-08-05T04:31:38.744Z,1.90
2022-08-05T04:34:18.342Z,2.22
2022-08-05T04:36:59.881Z,2.10
2022-08-05T04:39:35.293Z,2.10
2022-08-05T04:42:06.074Z,2.15
2022-08-05T04:44:36.714Z,2.15
2022-08-05T04:47:08.733Z,2.28
2022-08-05T04:50:01.862Z,2.30
2022-08-05T04:52:34.087Z,2.35
2022-08-05T04:55:14.558Z,2.00
2022-08-05T04:57:51.646Z,2.25
2022-08-05T05:00:27.556Z,2.58
2022-08-05T05:03:02.897Z,2.80
2022-08-05T05:05:34.717Z,2.47
2022-08-05T05:08:26.713Z,2.78
2022-08-05T05:11:03.213Z,2.97
2022-08-05T05:13:43.191Z,3.00
2022-08-05T05:16:15.448Z,2.30
2022-08-05T05:19:09.004Z,2.55
2022-08-05T05:21:36.626Z,2.35
2022-08-05T05:24:09.289Z,2.47
2022-08-05T05:26:42.084Z,2.30
2022-08-05T05:29:16.958Z,3.13
2022-08-05T05:31:49.370Z,2.83
2022-08-05T05:34:26.663Z,2.58
2022-08-05T05:36:57.426Z,2.38
2022-08-05T05:39:31.731Z,2.90
2022-08-05T05:42:07.975Z,2.53
2022-08-05T05:47:21.630Z,2.60
2022-08-05T05:49:57.002Z,2.70
2022-08-05T05:52:34.680Z,3.20
2022-08-05T05:55:13.294Z,2.90
2022-08-05T05:57:52.683Z,2.75
2022-08-05T06:00:27.716Z,2.80
2022-08-05T06:03:03.473Z,2.67
2022-08-05T06:05:55.521Z,2.50
2022-08-05T06:08:32.642Z,2.78
2022-08-05T06:11:04.067Z,3.10
2022-08-05T06:13:40.901Z,3.00
2022-08-05T06:16:31.761Z,2.90
2022-08-05T06:19:05.819Z,3.42
2022-08-05T06:21:41.772Z,3.25
2022-08-05T06:24:14.807Z,2.80
2022-08-05T06:26:51.600Z,3.05
2022-08-05T06:29:46.768Z,2.90
2022-08-05T06:32:25.190Z,3.00
2022-08-05T06:35:00.258Z,2.67
2022-08-05T06:37:56.321Z,2.65
2022-08-05T06:40:28.083Z,2.45
2022-08-05T06:43:02.713Z,2.70
2022-08-05T06:45:44.579Z,2.53
2022-08-05T06:48:54.648Z,2.58
2022-08-05T06:51:23.891Z,3.00
2022-08-05T06:53:59.982Z,2.63
2022-08-05T06:56:30.285Z,2.50
2022-08-05T06:59:09.594Z,2.30
2022-08-05T07:01:47.183Z,2.38
2022-08-05T07:04:23.077Z,2.47
2022-08-05T07:06:53.166Z,2.70
2022-08-05T07:09:24.970Z,2.63
2022-08-05T07:11:55.951Z,2.33
2022-08-05T07:14:43.072Z,2.85
2022-08-05T07:18:01.615Z,2.58
2022-08-05T07:20:32.098Z,2.42
2022-08-05T07:23:01.044Z,2.28
2022-08-05T07:25:55.120Z,2.33
2022-08-05T07:28:22.369Z,2.25
2022-08-05T07:30:55.489Z,2.60
2022-08-05T07:33:36.983Z,2.53
2022-08-05T07:36:20.576Z,3.10
2022-08-05T07:38:54.879Z,2.58
2022-08-05T07:42:13.532Z,2.70
2022-08-05T07:44:18.928Z,2.47
2022-08-05T07:46:50.392Z,2.92
2022-08-05T07:49:23.563Z,2.50
2022-08-05T07:51:55.053Z,2.55
2022-08-05T07:54:31.718Z,2.50
2022-08-05T07:57:18.114Z,2.40
2022-08-05T07:59:59.447Z,2.80
2022-08-05T08:03:14.173Z,2.60
2022-08-05T08:05:24.554Z,2.35
2022-08-05T08:07:59.040Z,2.72
2022-08-05T08:10:31.242Z,3.05
2022-08-05T08:13:03.035Z,2.67
2022-08-05T08:15:37.146Z,2.70
2022-08-05T08:18:24.088Z,2.92
2022-08-05T08:21:02.364Z,2.60
2022-08-05T08:24:01.606Z,2.72
2022-08-05T08:26:27.115Z,2.33
2022-08-05T08:29:22.179Z,2.67
2022-08-05T08:31:53.007Z,3.05
2022-08-05T08:34:30.750Z,2.85
2022-08-05T08:37:06.221Z,2.60
2022-08-05T08:39:38.184Z,3.00
2022-08-05T08:42:34.585Z,2.95
2022-08-05T08:45:23.475Z,3.13
2022-08-05T08:48:10.526Z,3.05
2022-08-05T08:51:03.960Z,2.83
2022-08-05T08:56:15.709Z,2.70
2022-08-05T08:58:48.617Z,2.83
2022-08-05T09:01:19.968Z,2.70
2022-08-05T09:03:55.221Z,2.90
2022-08-05T09:06:28.038Z,2.85
2022-08-05T09:09:03.564Z,2.90
2022-08-05T09:11:51.473Z,2.92
2022-08-05T09:14:56.575Z,2.67
2022-08-05T09:17:42.335Z,2.85
2022-08-05T09:20:08.487Z,2.83
2022-08-05T09:23:18.589Z,2.83
2022-08-05T09:26:02.156Z,2.92
2022-08-05T09:28:36.394Z,2.90
2022-08-05T09:31:44.139Z,3.00
2022-08-05T09:34:01.578Z,2.63
2022-08-05T09:36:55.280Z,3.25
2022-08-05T09:39:45.386Z,3.03
2022-08-05T09:42:24.092Z,3.17
2022-08-05T09:45:17.243Z,3.10
2022-08-05T09:47:56.483Z,3.00
2022-08-05T09:50:44.808Z,2.75
2022-08-05T09:53:22.779Z,3.10
2022-08-05T09:56:04.799Z,2.90
2022-08-05T09:58:44.525Z,3.17
2022-08-05T10:01:31.444Z,3.05
2022-08-05T10:04:10.314Z,3.03
2022-08-05T10:06:54.642Z,3.42
2022-08-05T10:09:28.228Z,3.00
2022-08-05T10:12:18.811Z,2.95
2022-08-05T10:15:26.125Z,2.90
2022-08-05T10:18:10.316Z,3.13
2022-08-05T10:20:47.811Z,2.65
2022-08-05T10:23:55.326Z,3.08
2022-08-05T10:26:15.100Z,3.10
2022-08-05T10:28:50.006Z,3.45
2022-08-05T10:33:01.486Z,2.80
2022-08-05T10:34:13.454Z,3.10
2022-08-05T10:36:45.050Z,3.10
2022-08-05T10:39:24.301Z,3.17
2022-08-05T10:42:02.635Z,2.92
2022-08-05T10:44:35.125Z,3.42
2022-08-05T10:47:26.958Z,3.15
2022-08-05T10:50:33.130Z,3.00
2022-08-05T10:53:02.180Z,3.13
2022-08-05T10:56:03.232Z,3.10
2022-08-05T10:58:35.777Z,2.75
2022-08-05T11:01:11.394Z,3.17
2022-08-05T11:04:03.258Z,3.10
2022-08-05T11:06:37.962Z,3.25
2022-08-05T11:09:31.896Z,3.10
2022-08-05T11:12:50.817Z,3.35
2022-08-05T11:16:00.803Z,3.35
2022-08-05T11:18:29.717Z,3.10
2022-08-05T11:21:06.249Z,2.92
2022-08-05T11:24:04.618Z,2.90
2022-08-05T11:26:36.979Z,3.10
2022-08-05T11:29:13.130Z,3.58
2022-08-05T11:31:58.457Z,3.47
2022-08-05T11:34:47.429Z,2.92
2022-08-05T11:38:27.961Z,3.20
2022-08-05T11:41:14.045Z,2.97
2022-08-05T11:44:07.442Z,3.25
2022-08-05T11:46:58.658Z,2.90
2022-08-05T11:53:21.376Z,3.70
2022-08-05T11:55:59.441Z,3.47
2022-08-05T11:58:34.628Z,3.50
2022-08-05T12:01:10.486Z,3.10
2022-08-05T12:03:55.821Z,3.00
2022-08-05T12:06:29.550Z,2.80
2022-08-05T12:09:02.841Z,3.03
2022-08-05T12:11:39.970Z,3.08
2022-08-05T12:14:11.692Z,3.22
2022-08-05T12:16:45.142Z,3.22
2022-08-05T12:20:16.684Z,2.92
2022-08-05T12:22:09.723Z,2.47
2022-08-05T12:24:49.543Z,2.83
2022-08-05T12:27:25.699Z,3.38
2022-08-05T12:30:05.136Z,3.63
2022-08-05T12:32:36.132Z,3.08
2022-08-05T12:35:12.242Z,3.08
2022-08-05T12:37:49.724Z,3.22
2022-08-05T12:40:30.982Z,2.85
2022-08-05T12:43:01.446Z,3.28
2022-08-05T12:45:42.409Z,3.58
2022-08-05T12:48:27.141Z,3.17
2022-08-05T12:51:21.912Z,3.08
2022-08-05T12:54:14.753Z,3.30
2022-08-05T12:56:57.903Z,3.08
2022-08-05T13:00:08.522Z,3.30
2022-08-05T13:02:30.574Z,3.10
2022-08-05T13:05:01.359Z,2.83
2022-08-05T13:07:57.221Z,3.38
2022-08-05T13:10:24.299Z,2.95
2022-08-05T13:12:59.854Z,2.88
2022-08-05T13:15:41.680Z,2.92
2022-08-05T13:18:20.946Z,2.92
2022-08-05T13:20:53.150Z,3.00
2022-08-05T13:23:23.318Z,3.30
2022-08-05T13:25:59.547Z,2.97
2022-08-05T13:28:35.198Z,3.53
2022-08-05T13:31:14.681Z,3.25
2022-08-05T13:34:23.462Z,3.13
2022-08-05T13:36:36.139Z,2.92
2022-08-05T13:39:07.791Z,2.90
2022-08-05T13:41:55.318Z,3.33
2022-08-05T13:44:28.527Z,3.05
2022-08-05T13:47:04.647Z,3.05
2022-08-05T13:49:45.322Z,2.85
2022-08-05T13:52:19.716Z,3.38
2022-08-05T13:55:02.592Z,2.95
2022-08-05T13:57:49.074Z,2.95
2022-08-05T14:00:27.719Z,3.22
2022-08-05T14:03:01.215Z,2.90
2022-08-05T14:06:24.745Z,2.83
2022-08-05T14:08:27.667Z,3.00
2022-08-05T14:11:03.236Z,3.10
2022-08-05T14:13:48.769Z,3.00
2022-08-05T14:16:28.000Z,3.17
2022-08-05T14:18:58.216Z,3.15
2022-08-05T14:22:09.725Z,2.97
2022-08-05T14:24:28.518Z,3.03
2022-08-05T14:27:18.366Z,3.08
2022-08-05T14:29:52.115Z,3.10
2022-08-05T14:32:26.987Z,3.67
2022-08-05T14:35:01.175Z,3.00
2022-08-05T14:37:45.539Z,2.95
2022-08-05T14:40:20.351Z,3.00
2022-08-05T14:42:54.980Z,3.30
2022-08-05T14:45:26.280Z,3.97
2022-08-05T14:48:05.284Z,2.80
2022-08-05T14:50:40.772Z,3.00
2022-08-05T14:53:12.456Z,3.38
2022-08-05T14:55:43.883Z,3.22
2022-08-05T14:58:22.446Z,3.00
2022-08-05T15:00:58.430Z,2.75
2022-08-05T15:03:39.128Z,3.10
2022-08-05T15:06:15.629Z,2.97
2022-08-05T15:09:01.210Z,2.78
2022-08-05T15:11:51.256Z,4.18
2022-08-05T15:14:34.470Z,2.90
2022-08-05T15:17:45.121Z,2.85
2022-08-05T15:20:03.825Z,3.00
2022-08-05T15:22:34.113Z,2.85
2022-08-05T15:25:14.189Z,3.00
2022-08-05T15:27:52.078Z,3.08
2022-08-05T15:30:22.852Z,3.17
2022-08-05T15:32:53.269Z,3.22
2022-08-05T15:35:28.780Z,3.65
2022-08-05T15:38:33.389Z,3.05
2022-08-05T15:41:21.064Z,3.25
2022-08-05T15:43:48.364Z,3.13
2022-08-05T15:46:18.662Z,3.17
2022-08-05T15:48:57.927Z,2.90
2022-08-05T15:52:10.363Z,2.90
2022-08-05T15:54:34.435Z,2.95
2022-08-05T15:57:16.034Z,3.05
2022-08-05T15:59:46.539Z,3.00
2022-08-05T16:02:19.825Z,2.75
2022-08-05T16:04:56.145Z,2.95
2022-08-05T16:07:29.597Z,2.90
2022-08-05T16:10:00.634Z,3.50
2022-08-05T16:12:31.174Z,3.08
2022-08-05T16:15:02.392Z,3.00
2022-08-05T16:17:34.188Z,2.95
2022-08-05T16:20:11.962Z,2.75
2022-08-05T16:22:45.292Z,3.10
2022-08-05T16:25:15.483Z,2.90
2022-08-05T16:28:04.822Z,3.20
2022-08-05T16:30:38.519Z,3.00
2022-08-05T16:35:42.917Z,2.90
2022-08-05T16:38:25.108Z,2.95
2022-08-05T16:43:33.291Z,3.00
2022-08-05T16:46:23.647Z,3.33
2022-08-05T16:48:55.602Z,3.17
2022-08-05T16:51:51.063Z,3.05
2022-08-05T16:54:39.249Z,2.85
2022-08-05T16:57:22.366Z,2.85
2022-08-05T17:00:26.154Z,3.13
2022-08-05T17:03:09.254Z,2.70
2022-08-05T17:05:54.151Z,3.08
2022-08-05T17:08:36.041Z,3.05
2022-08-05T17:11:23.452Z,3.08
2022-08-05T17:14:05.427Z,3.22
2022-08-05T17:16:37.387Z,3.28
2022-08-05T17:19:09.653Z,2.90
2022-08-05T17:21:42.049Z,2.72
2022-08-05T17:24:34.982Z,3.47
2022-08-05T17:27:11.885Z,3.15
2022-08-05T17:29:51.418Z,2.75
2022-08-05T17:32:30.751Z,3.25
2022-08-05T17:35:04.161Z,3.30
2022-08-05T17:37:40.003Z,3.08
2022-08-05T17:40:14.975Z,2.85
2022-08-05T17:42:50.768Z,3.20
2022-08-05T17:45:23.093Z,3.10
2022-08-05T17:47:56.315Z,3.17
2022-08-05T17:50:30.423Z,3.40
2022-08-05T17:53:02.410Z,3.10
2022-08-05T17:55:34.291Z,3.35
2022-08-05T17:58:16.198Z,3.20
2022-08-05T18:00:50.572Z,3.47
2022-08-05T18:06:15.543Z,3.58
2022-08-05T18:08:52.525Z,3.40
2022-08-05T18:11:32.539Z,3.83
2022-08-05T18:14:13.685Z,3.60
2022-08-05T18:16:51.994Z,4.20
2022-08-05T18:19:26.023Z,3.55
2022-08-05T18:22:08.226Z,4.07
2022-08-05T18:24:40.639Z,3.47
2022-08-05T18:27:18.583Z,3.95
2022-08-05T18:29:54.606Z,3.80
2022-08-05T18:32:28.170Z,3.45
2022-08-05T18:34:59.959Z,3.55
2022-08-05T18:37:34.581Z,3.35
2022-08-05T18:40:33.802Z,3.67
2022-08-05T18:43:04.182Z,3.65
2022-08-05T18:45:42.599Z,3.92
2022-08-05T18:48:30.226Z,3.60
2022-08-05T18:52:05.668Z,3.50
2022-08-05T18:54:06.959Z,3.70
2022-08-05T18:56:39.146Z,3.72
2022-08-05T18:59:42.046Z,3.55
2022-08-05T19:02:03.684Z,3.70
2022-08-05T19:04:33.935Z,4.45
2022-08-05T19:07:24.324Z,3.80
2022-08-05T19:10:01.267Z,3.88
2022-08-05T19:12:37.081Z,3.97
2022-08-05T19:15:24.928Z,4.03
2022-08-05T19:18:09.239Z,4.72
2022-08-05T19:20:46.594Z,4.55
2022-08-05T19:24:03.905Z,4.80
2022-08-05T19:26:09.233Z,4.30
2022-08-05T19:28:42.314Z,4.32
2022-08-05T19:31:19.283Z,4.03
2022-08-05T19:33:56.325Z,4.05
2022-08-05T19:36:29.235Z,3.70
2022-08-05T19:39:01.961Z,4.10
2022-08-05T19:41:58.504Z,4.07
2022-08-05T19:44:24.602Z,3.90
2022-08-05T19:46:59.882Z,4.07
2022-08-05T19:49:32.713Z,4.15
2022-08-05T19:52:08.778Z,3.60
2022-08-05T19:54:53.814Z,3.78
2022-08-05T19:57:48.999Z,3.67
2022-08-05T20:00:15.115Z,3.70
2022-08-05T20:02:45.285Z,3.40
2022-08-05T20:05:24.753Z,3.65
2022-08-05T20:07:58.773Z,3.92
2022-08-05T20:10:29.487Z,3.53
2022-08-05T20:12:59.662Z,3.85
2022-08-05T20:15:51.569Z,3.65
2022-08-05T20:18:33.486Z,3.60
2022-08-05T20:21:12.039Z,3.40
2022-08-05T20:23:50.869Z,3.72
2022-08-05T20:26:23.439Z,3.30
2022-08-05T20:28:56.283Z,3.63
2022-08-05T20:31:42.094Z,3.33
2022-08-05T20:34:20.093Z,3.35
2022-08-05T20:36:52.907Z,3.35
2022-08-05T20:39:23.315Z,3.40
2022-08-05T20:41:53.850Z,3.60
2022-08-05T20:44:36.349Z,4.25
2022-08-05T20:47:09.554Z,3.60
2022-08-05T20:49:40.938Z,3.77
2022-08-05T20:52:14.150Z,3.70
2022-08-05T20:54:59.170Z,3.40
2022-08-05T20:57:43.893Z,3.60
2022-08-05T21:00:40.522Z,3.88
2022-08-05T21:05:53.606Z,3.30
2022-08-05T21:08:42.016Z,3.60
2022-08-05T21:11:15.116Z,3.50
2022-08-05T21:14:03.046Z,3.35
2022-08-05T21:16:33.671Z,3.42
2022-08-05T21:19:06.263Z,3.33
2022-08-05T21:21:39.339Z,3.47
2022-08-05T21:24:16.935Z,3.47
2022-08-05T21:26:53.567Z,3.33
2022-08-05T21:29:32.078Z,3.40
2022-08-05T21:32:04.198Z,3.40
2022-08-05T21:34:35.574Z,3.47
2022-08-05T21:37:08.180Z,3.30
2022-08-05T21:39:41.162Z,3.60
2022-08-05T21:42:30.584Z,3.15
2022-08-05T21:45:01.943Z,3.30
2022-08-05T21:47:56.386Z,3.38
2022-08-05T21:50:23.860Z,3.33
2022-08-05T21:52:54.004Z,3.30
2022-08-05T21:56:01.541Z,3.15
2022-08-05T21:58:30.867Z,3.63
2022-08-05T22:01:04.707Z,3.53
2022-08-05T22:03:52.581Z,3.33
2022-08-05T22:06:35.246Z,3.33
2022-08-05T22:09:14.651Z,3.63
2022-08-05T22:11:48.327Z,4.25
2022-08-05T22:14:35.325Z,3.72
2022-08-05T22:17:08.624Z,3.58
2022-08-05T22:19:57.487Z,3.05
2022-08-05T22:22:29.404Z,3.30
2022-08-05T22:25:21.342Z,3.60
2022-08-05T22:28:10.656Z,3.50
2022-08-05T22:30:55.946Z,3.70
2022-08-05T22:33:55.881Z,3.83
2022-08-05T22:36:19.252Z,3.63
2022-08-05T22:38:54.754Z,3.60
2022-08-05T22:42:04.521Z,3.70
2022-08-05T22:44:19.241Z,3.47
2022-08-05T22:46:49.409Z,2.83
2022-08-05T22:50:18.061Z,3.20
2022-08-05T22:52:16.707Z,3.47
2022-08-05T22:55:00.878Z,3.58
2022-08-05T22:57:36.646Z,3.53
2022-08-05T23:00:12.100Z,3.35
2022-08-05T23:02:48.762Z,3.38
2022-08-05T23:05:21.911Z,3.80
2022-08-05T23:07:53.357Z,3.40
2022-08-05T23:10:24.445Z,3.35
2022-08-05T23:12:56.019Z,3.45
2022-08-05T23:15:34.998Z,3.45
2022-08-05T23:18:11.635Z,3.58
2022-08-05T23:20:46.565Z,3.75
2022-08-05T23:23:16.707Z,3.88
2022-08-05T23:25:50.869Z,3.53
2022-08-05T23:28:27.826Z,3.42
2022-08-05T23:31:16.976Z,3.45
2022-08-05T23:34:04.059Z,3.58
2022-08-05T23:36:39.766Z,3.20
2022-08-05T23:39:17.138Z,2.97
2022-08-05T23:41:56.369Z,3.42
2022-08-05T23:44:27.951Z,3.10
2022-08-05T23:47:14.437Z,4.45
2022-08-05T23:52:28.495Z,3.55
2022-08-05T23:55:00.307Z,3.13
2022-08-05T23:57:31.793Z,3.10
